createdAt,value
2018-03-26T00:00:14.476Z,47.00
2018-03-26T00:02:42.837Z,50.47
2018-03-26T00:05:10.464Z,43.10
2018-03-26T00:07:38.062Z,42.00
2018-03-26T00:10:05.656Z,58.23
2018-03-26T00:12:33.282Z,48.70
2018-03-26T00:15:00.882Z,61.40
2018-03-26T00:17:28.519Z,47.07
2018-03-26T00:19:57.001Z,57.30
2018-03-26T00:22:25.397Z,47.40
2018-03-26T00:24:53.767Z,51.50
2018-03-26T00:27:22.119Z,42.80
2018-03-26T00:29:49.753Z,68.93
2018-03-26T00:32:17.340Z,48.57
2018-03-26T00:34:44.995Z,57.53
2018-03-26T00:37:12.593Z,52.57
2018-03-26T00:39:40.213Z,47.90
2018-03-26T00:42:07.854Z,60.07
2018-03-26T00:44:35.457Z,43.10
2018-03-26T00:47:03.100Z,45.50
2018-03-26T00:49:30.692Z,47.77
2018-03-26T00:51:59.055Z,57.33
2018-03-26T00:54:26.697Z,61.53
2018-03-26T00:56:54.338Z,60.07
2018-03-26T00:59:21.924Z,47.33
2018-03-26T01:01:49.560Z,45.90
2018-03-26T01:04:17.164Z,46.80
2018-03-26T01:06:44.790Z,44.80
2018-03-26T01:09:12.386Z,53.33
2018-03-26T01:11:40.008Z,50.03
2018-03-26T01:14:07.604Z,42.70
2018-03-26T01:16:35.976Z,62.23
2018-03-26T01:19:03.616Z,45.40
2018-03-26T01:21:31.206Z,47.77
2018-03-26T01:23:58.804Z,56.67
2018-03-26T01:26:26.424Z,52.87
2018-03-26T01:28:55.522Z,42.47
2018-03-26T01:31:23.908Z,55.97
2018-03-26T01:33:52.282Z,41.03
2018-03-26T01:36:19.904Z,33.87
2018-03-26T01:38:47.495Z,60.33
2018-03-26T01:41:15.121Z,56.13
2018-03-26T01:43:42.708Z,49.77
2018-03-26T01:46:10.337Z,44.57
2018-03-26T01:48:37.931Z,40.33
2018-03-26T01:51:05.562Z,47.63
2018-03-26T01:53:33.154Z,41.97
2018-03-26T01:56:00.782Z,57.93
2018-03-26T01:58:28.376Z,46.87
2018-03-26T02:00:56.000Z,44.10
2018-03-26T02:03:23.601Z,50.30
2018-03-26T02:05:51.225Z,42.93
2018-03-26T02:08:18.821Z,43.57
2018-03-26T02:10:46.450Z,67.73
2018-03-26T02:13:14.044Z,38.73
2018-03-26T02:15:41.668Z,54.50
2018-03-26T02:18:09.265Z,60.63
2018-03-26T02:20:36.893Z,60.50
2018-03-26T02:23:04.534Z,54.20
2018-03-26T02:25:32.161Z,48.20
2018-03-26T02:27:59.756Z,56.27
2018-03-26T02:30:27.376Z,43.97
2018-03-26T02:32:55.732Z,58.30
2018-03-26T02:35:23.352Z,43.57
2018-03-26T02:37:50.948Z,56.70
2018-03-26T02:40:18.579Z,62.43
2018-03-26T02:42:46.184Z,50.80
2018-03-26T02:45:13.817Z,43.20
2018-03-26T02:47:41.410Z,62.53
2018-03-26T02:50:09.007Z,67.20
2018-03-26T02:52:37.388Z,63.80
2018-03-26T02:55:04.989Z,60.47
2018-03-26T02:57:32.612Z,62.90
2018-03-26T03:00:00.209Z,68.40
2018-03-26T03:02:27.832Z,51.47
2018-03-26T03:04:55.428Z,58.93
2018-03-26T03:07:23.053Z,64.70
2018-03-26T03:09:50.654Z,62.03
2018-03-26T03:12:18.277Z,47.90
2018-03-26T03:14:45.873Z,65.07
2018-03-26T03:17:13.496Z,70.27
2018-03-26T03:19:41.089Z,64.73
2018-03-26T03:22:08.710Z,77.10
2018-03-26T03:24:37.074Z,58.03
2018-03-26T03:27:05.469Z,63.20
2018-03-26T03:29:33.833Z,74.07
2018-03-26T03:32:02.228Z,80.23
2018-03-26T03:34:29.848Z,81.37
2018-03-26T03:36:57.476Z,80.27
2018-03-26T03:39:25.081Z,67.43
2018-03-26T03:41:52.720Z,94.23
2018-03-26T03:44:20.325Z,80.77
2018-03-26T03:46:48.712Z,84.87
2018-03-26T03:49:17.072Z,69.17
2018-03-26T03:51:44.700Z,88.13
2018-03-26T03:54:12.300Z,95.03
2018-03-26T03:56:40.704Z,101.57
2018-03-26T03:59:08.393Z,110.60
2018-03-26T04:01:35.983Z,106.20
2018-03-26T04:04:03.626Z,108.20
2018-03-26T04:06:31.234Z,102.90
2018-03-26T04:08:59.620Z,113.30
2018-03-26T04:11:27.233Z,113.27
2018-03-26T04:13:54.867Z,113.00
2018-03-26T04:16:22.468Z,104.40
2018-03-26T04:18:50.065Z,97.97
2018-03-26T04:21:17.693Z,107.50
2018-03-26T04:23:46.066Z,96.90
2018-03-26T04:26:13.712Z,90.80
2018-03-26T04:28:41.308Z,88.83
2018-03-26T04:31:09.792Z,82.97
2018-03-26T04:33:38.175Z,73.83
2018-03-26T04:36:06.539Z,82.57
2018-03-26T04:38:34.926Z,92.73
2018-03-26T04:41:03.284Z,76.03
2018-03-26T04:43:30.911Z,87.53
2018-03-26T04:45:58.505Z,80.83
2018-03-26T04:48:26.131Z,86.50
2018-03-26T04:50:53.728Z,89.03
2018-03-26T04:53:21.358Z,83.13
2018-03-26T04:55:48.987Z,78.17
2018-03-26T04:58:17.328Z,77.80
2018-03-26T05:00:44.948Z,75.97
2018-03-26T05:03:12.546Z,86.17
2018-03-26T05:05:40.177Z,84.57
2018-03-26T05:08:07.772Z,77.63
2018-03-26T05:10:36.151Z,76.10
2018-03-26T05:13:03.743Z,78.17
2018-03-26T05:15:32.133Z,100.20
2018-03-26T05:17:59.732Z,74.27
2018-03-26T05:20:27.353Z,62.37
2018-03-26T05:22:54.948Z,82.53
2018-03-26T05:25:22.572Z,77.63
2018-03-26T05:27:50.182Z,78.90
2018-03-26T05:30:17.801Z,73.63
2018-03-26T05:32:45.405Z,72.10
2018-03-26T05:35:13.032Z,70.47
2018-03-26T05:37:40.630Z,79.53
2018-03-26T05:40:09.243Z,71.70
2018-03-26T05:42:37.605Z,69.57
2018-03-26T05:45:05.240Z,67.20
2018-03-26T05:47:32.836Z,72.97
2018-03-26T05:50:01.242Z,67.70
2018-03-26T05:52:28.839Z,64.10
2018-03-26T05:54:56.591Z,77.47
2018-03-26T05:57:26.389Z,63.97
2018-03-26T05:59:54.021Z,79.13
2018-03-26T06:02:22.390Z,66.23
2018-03-26T06:04:50.755Z,55.53
2018-03-26T06:07:18.378Z,56.43
2018-03-26T06:09:45.974Z,58.43
2018-03-26T06:12:13.600Z,62.63
2018-03-26T06:14:41.200Z,61.23
2018-03-26T06:17:16.335Z,61.37
2018-03-26T06:19:43.932Z,60.90
2018-03-26T06:22:11.552Z,56.80
2018-03-26T06:24:39.152Z,58.97
2018-03-26T06:27:06.774Z,60.50
2018-03-26T06:29:34.368Z,49.53
2018-03-26T06:32:02.765Z,43.50
2018-03-26T06:34:30.360Z,51.93
2018-03-26T06:39:57.635Z,47.10
2018-03-26T06:42:25.261Z,48.60
2018-03-26T06:44:52.848Z,55.30
2018-03-26T06:47:20.480Z,36.30
2018-03-26T06:49:48.097Z,45.47
2018-03-26T06:52:16.497Z,43.90
2018-03-26T06:54:44.875Z,44.00
2018-03-26T06:57:13.269Z,37.90
2018-03-26T06:59:40.872Z,35.20
2018-03-26T07:02:08.499Z,33.00
2018-03-26T07:04:36.141Z,37.90
2018-03-26T07:07:04.510Z,41.73
2018-03-26T07:09:32.956Z,39.70
2018-03-26T07:12:00.568Z,48.57
2018-03-26T07:14:28.220Z,43.63
2018-03-26T07:16:56.575Z,47.73
2018-03-26T07:19:25.015Z,43.83
2018-03-26T07:21:52.618Z,38.60
2018-03-26T07:24:20.236Z,31.83
2018-03-26T07:26:47.836Z,35.63
2018-03-26T07:29:15.454Z,30.00
2018-03-26T07:31:43.039Z,27.83
2018-03-26T07:34:11.463Z,31.00
2018-03-26T07:36:39.825Z,25.87
2018-03-26T07:39:07.449Z,25.80
2018-03-26T07:41:35.039Z,21.93
2018-03-26T07:44:02.673Z,25.03
2018-03-26T07:46:30.268Z,27.87
2018-03-26T07:48:57.888Z,23.30
2018-03-26T07:51:25.560Z,23.43
2018-03-26T07:53:53.185Z,21.10
2018-03-26T07:56:20.882Z,22.03
2018-03-26T07:58:48.495Z,19.27
2018-03-26T08:01:16.853Z,21.30
2018-03-26T08:03:45.248Z,25.07
2018-03-26T08:06:13.604Z,22.37
2018-03-26T08:08:41.273Z,23.07
2018-03-26T08:11:08.892Z,20.97
2018-03-26T08:13:36.488Z,24.63
2018-03-26T08:16:04.125Z,18.67
2018-03-26T08:18:31.763Z,23.37
2018-03-26T08:20:59.364Z,18.87
2018-03-26T08:23:26.989Z,19.03
2018-03-26T08:25:54.588Z,17.67
2018-03-26T08:28:22.200Z,19.30
2018-03-26T08:30:49.840Z,19.50
2018-03-26T08:33:18.202Z,18.83
2018-03-26T08:35:46.605Z,21.90
2018-03-26T08:38:14.196Z,22.30
2018-03-26T08:40:41.828Z,16.17
2018-03-26T08:43:09.416Z,16.20
2018-03-26T08:45:37.042Z,18.50
2018-03-26T08:48:05.399Z,15.70
2018-03-26T08:50:33.802Z,16.37
2018-03-26T08:53:01.420Z,20.67
2018-03-26T08:55:29.040Z,19.27
2018-03-26T08:57:56.636Z,12.53
2018-03-26T09:00:24.264Z,13.47
2018-03-26T09:02:51.865Z,14.73
2018-03-26T09:05:20.290Z,13.90
2018-03-26T09:07:48.102Z,14.83
2018-03-26T09:10:15.923Z,14.70
2018-03-26T09:12:43.839Z,13.03
2018-03-26T09:15:11.705Z,12.63
2018-03-26T09:17:41.106Z,11.93
2018-03-26T09:20:08.974Z,9.57
2018-03-26T09:22:36.940Z,15.33
2018-03-26T09:25:04.803Z,11.50
2018-03-26T09:27:32.674Z,10.67
2018-03-26T09:30:00.542Z,10.80
2018-03-26T09:32:28.408Z,11.43
2018-03-26T09:34:56.276Z,8.87
2018-03-26T09:37:24.453Z,10.50
2018-03-26T09:39:53.037Z,11.53
2018-03-26T09:42:20.897Z,9.10
2018-03-26T09:44:48.663Z,12.10
2018-03-26T09:47:16.629Z,19.70
2018-03-26T09:49:44.392Z,15.20
2018-03-26T09:52:12.016Z,11.33
2018-03-26T09:54:39.672Z,12.93
2018-03-26T09:57:07.305Z,12.00
2018-03-26T09:59:34.892Z,9.07
2018-03-26T10:02:02.504Z,13.00
2018-03-26T10:04:30.137Z,12.40
2018-03-26T10:06:57.932Z,12.30
2018-03-26T10:09:25.533Z,9.47
2018-03-26T10:11:53.212Z,11.10
2018-03-26T10:14:20.826Z,11.00
2018-03-26T10:16:48.434Z,8.10
2018-03-26T10:19:16.118Z,6.53
2018-03-26T10:21:43.740Z,5.27
2018-03-26T10:24:12.100Z,6.30
2018-03-26T10:26:39.732Z,6.83
2018-03-26T10:29:07.320Z,6.50
2018-03-26T10:31:34.931Z,4.43
2018-03-26T10:34:03.213Z,4.83
2018-03-26T10:36:31.012Z,3.37
2018-03-26T10:38:58.603Z,4.67
2018-03-26T10:41:26.986Z,3.77
2018-03-26T10:43:54.584Z,4.57
2018-03-26T10:46:22.202Z,4.00
2018-03-26T10:48:49.801Z,3.40
2018-03-26T10:51:17.434Z,3.47
2018-03-26T10:53:45.047Z,6.77
2018-03-26T10:56:12.660Z,3.43
2018-03-26T10:58:40.244Z,4.47
2018-03-26T11:01:07.925Z,2.60
2018-03-26T11:03:35.512Z,7.43
2018-03-26T11:06:03.887Z,3.30
2018-03-26T11:08:32.342Z,3.23
2018-03-26T11:11:00.007Z,5.10
2018-03-26T11:13:27.857Z,3.50
2018-03-26T11:15:55.669Z,3.70
2018-03-26T11:18:24.217Z,4.17
2018-03-26T11:20:51.980Z,4.20
2018-03-26T11:23:19.674Z,7.03
2018-03-26T11:25:48.063Z,4.20
2018-03-26T11:28:16.551Z,4.70
2018-03-26T11:30:44.922Z,4.77
2018-03-26T11:33:13.328Z,4.73
2018-03-26T11:35:41.144Z,3.30
2018-03-26T11:38:08.768Z,2.90
2018-03-26T11:40:36.449Z,2.90
2018-03-26T11:43:04.316Z,3.90
2018-03-26T11:45:31.978Z,3.17
2018-03-26T11:47:59.677Z,4.07
2018-03-26T11:50:28.191Z,3.40
2018-03-26T11:52:56.117Z,3.63
2018-03-26T11:55:23.896Z,4.10
2018-03-26T11:57:52.551Z,2.10
2018-03-26T12:00:20.699Z,2.40
2018-03-26T12:02:48.337Z,3.60
2018-03-26T12:05:15.930Z,3.43
2018-03-26T12:07:44.247Z,3.97
2018-03-26T12:10:11.881Z,3.53
2018-03-26T12:12:39.513Z,2.70
2018-03-26T12:15:07.109Z,2.63
2018-03-26T12:17:34.785Z,5.43
2018-03-26T12:20:15.001Z,4.23
2018-03-26T12:22:42.596Z,2.73
2018-03-26T12:25:15.716Z,3.90
2018-03-26T12:27:55.252Z,3.63
2018-03-26T12:30:24.715Z,2.37
2018-03-26T12:32:52.454Z,3.87
2018-03-26T12:35:32.004Z,4.00
2018-03-26T12:37:59.591Z,3.67
2018-03-26T12:40:39.124Z,4.80
2018-03-26T12:43:06.721Z,4.00
2018-03-26T12:45:46.860Z,4.03
2018-03-26T12:48:14.447Z,3.03
2018-03-26T12:50:54.044Z,3.53
2018-03-26T12:53:21.635Z,3.00
2018-03-26T12:55:50.026Z,3.43
2018-03-26T12:58:29.533Z,3.87
2018-03-26T13:01:08.943Z,3.67
2018-03-26T13:03:36.529Z,3.27
2018-03-26T13:06:04.155Z,3.73
2018-03-26T13:08:31.752Z,2.63
2018-03-26T13:11:00.132Z,2.70
2018-03-26T13:13:27.759Z,7.53
2018-03-26T13:15:55.373Z,4.37
2018-03-26T13:18:23.800Z,2.47
2018-03-26T13:20:51.522Z,3.77
2018-03-26T13:23:19.883Z,5.43
2018-03-26T13:25:48.274Z,5.10
2018-03-26T13:28:16.624Z,4.33
2018-03-26T13:30:44.253Z,5.90
2018-03-26T13:33:11.842Z,3.30
2018-03-26T13:35:39.429Z,8.50
2018-03-26T13:38:07.828Z,3.93
2018-03-26T13:40:35.416Z,5.57
2018-03-26T13:43:03.028Z,6.20
2018-03-26T13:45:31.384Z,5.27
2018-03-26T13:47:59.010Z,9.03
2018-03-26T13:50:26.596Z,5.63
2018-03-26T13:52:54.215Z,4.87
2018-03-26T13:55:21.821Z,7.37
2018-03-26T13:57:49.485Z,7.47
2018-03-26T14:00:17.084Z,6.80
2018-03-26T14:02:44.704Z,10.00
2018-03-26T14:05:12.304Z,5.80
2018-03-26T14:07:40.685Z,7.50
2018-03-26T14:10:20.004Z,6.40
2018-03-26T14:13:00.223Z,5.90
2018-03-26T14:15:39.688Z,12.50
2018-03-26T14:18:08.072Z,10.63
2018-03-26T14:20:37.135Z,9.67
2018-03-26T14:23:04.748Z,9.40
2018-03-26T14:25:33.131Z,7.63
2018-03-26T14:28:01.772Z,11.03
2018-03-26T14:30:29.412Z,9.47
2018-03-26T14:32:57.004Z,8.13
2018-03-26T14:38:18.244Z,21.37
2018-03-26T14:40:46.670Z,22.87
2018-03-26T14:43:14.347Z,23.60
2018-03-26T14:45:42.008Z,24.10
2018-03-26T14:48:09.660Z,30.23
2018-03-26T14:50:37.283Z,29.23
2018-03-26T14:53:06.227Z,24.70
2018-03-26T14:55:33.833Z,27.93
2018-03-26T14:58:02.218Z,28.03
2018-03-26T15:00:30.585Z,27.50
2018-03-26T15:02:58.992Z,26.23
2018-03-26T15:05:26.684Z,26.77
2018-03-26T15:07:54.283Z,27.17
2018-03-26T15:10:21.913Z,24.67
2018-03-26T15:12:49.511Z,28.23
2018-03-26T15:15:17.889Z,24.20
2018-03-26T15:17:46.284Z,29.27
2018-03-26T15:20:14.644Z,26.67
2018-03-26T15:22:43.030Z,16.93
2018-03-26T15:25:11.461Z,21.87
2018-03-26T15:27:39.079Z,22.63
2018-03-26T15:30:07.441Z,20.17
2018-03-26T15:32:35.075Z,21.90
2018-03-26T15:35:02.679Z,20.00
2018-03-26T15:37:31.050Z,19.60
2018-03-26T15:39:59.452Z,18.53
2018-03-26T15:42:27.052Z,21.20
2018-03-26T15:44:54.650Z,20.70
2018-03-26T15:47:23.046Z,19.20
2018-03-26T15:49:50.666Z,18.70
2018-03-26T15:52:18.264Z,20.13
2018-03-26T15:54:45.968Z,18.70
2018-03-26T15:57:13.566Z,11.73
2018-03-26T15:59:41.192Z,17.87
2018-03-26T16:02:08.301Z,20.23
2018-03-26T16:04:36.261Z,15.77
2018-03-26T16:07:04.686Z,17.07
2018-03-26T16:09:33.132Z,13.60
2018-03-26T16:12:00.727Z,15.33
2018-03-26T16:14:28.352Z,13.00
2018-03-26T16:16:55.966Z,15.20
2018-03-26T16:19:24.376Z,19.07
2018-03-26T16:21:52.743Z,13.23
2018-03-26T16:24:20.378Z,17.73
2018-03-26T16:26:47.981Z,11.60
2018-03-26T16:29:16.352Z,19.03
2018-03-26T16:31:44.753Z,19.03
2018-03-26T16:34:12.354Z,18.13
2018-03-26T16:36:39.980Z,14.50
2018-03-26T16:39:07.576Z,18.10
2018-03-26T16:41:47.823Z,14.50
2018-03-26T16:44:16.232Z,17.27
2018-03-26T16:46:45.716Z,15.20
2018-03-26T16:49:16.308Z,10.53
2018-03-26T16:51:46.344Z,17.20
2018-03-26T16:54:17.111Z,19.30
2018-03-26T16:56:48.002Z,15.60
2018-03-26T16:59:17.793Z,14.10
2018-03-26T17:01:47.958Z,16.33
2018-03-26T17:04:17.810Z,17.90
2018-03-26T17:06:47.990Z,12.43
2018-03-26T17:09:18.109Z,11.60
2018-03-26T17:11:46.651Z,16.23
2018-03-26T17:14:15.025Z,12.33
2018-03-26T17:16:43.427Z,14.80
2018-03-26T17:19:11.069Z,10.47
2018-03-26T17:21:39.457Z,16.83
2018-03-26T17:24:07.881Z,17.20
2018-03-26T17:26:35.524Z,14.97
2018-03-26T17:29:03.126Z,13.90
2018-03-26T17:31:30.739Z,11.97
2018-03-26T17:33:59.929Z,18.70
2018-03-26T17:36:29.160Z,16.13
2018-03-26T17:38:58.145Z,18.90
2018-03-26T17:41:28.077Z,16.77
2018-03-26T17:43:57.256Z,15.80
2018-03-26T17:46:26.169Z,14.60
2018-03-26T17:48:55.175Z,17.33
2018-03-26T17:51:24.837Z,12.03
2018-03-26T17:53:54.636Z,14.70
2018-03-26T17:56:24.152Z,15.53
2018-03-26T17:58:51.832Z,13.40
2018-03-26T18:01:19.430Z,13.37
2018-03-26T18:03:47.044Z,14.37
2018-03-26T18:06:14.646Z,16.77
2018-03-26T18:08:42.268Z,16.50
2018-03-26T18:11:09.865Z,16.50
2018-03-26T18:13:37.486Z,13.97
2018-03-26T18:16:05.095Z,17.27
2018-03-26T18:18:32.726Z,15.37
2018-03-26T18:21:00.333Z,13.23
2018-03-26T18:23:27.974Z,11.07
2018-03-26T18:25:55.581Z,15.27
2018-03-26T18:28:23.208Z,12.53
2018-03-26T18:30:51.573Z,14.60
2018-03-26T18:33:19.211Z,14.37
2018-03-26T18:35:46.806Z,14.70
2018-03-26T18:38:15.169Z,9.90
2018-03-26T18:40:42.796Z,14.27
2018-03-26T18:43:10.387Z,13.53
2018-03-26T18:45:38.018Z,17.47
2018-03-26T18:48:05.612Z,14.60
2018-03-26T18:50:34.004Z,9.83
2018-03-26T18:53:01.601Z,14.13
2018-03-26T18:55:29.221Z,14.83
2018-03-26T18:57:56.820Z,17.30
2018-03-26T19:00:24.436Z,19.20
2018-03-26T19:02:52.038Z,18.20
2018-03-26T19:05:19.665Z,14.00
2018-03-26T19:07:47.286Z,13.27
2018-03-26T19:10:14.919Z,11.47
2018-03-26T19:12:42.516Z,10.63
2018-03-26T19:15:10.928Z,10.60
2018-03-26T19:17:39.516Z,10.40
2018-03-26T19:20:07.144Z,18.53
2018-03-26T19:22:34.736Z,14.47
2018-03-26T19:25:02.369Z,14.80
2018-03-26T19:27:29.967Z,12.73
2018-03-26T19:29:58.633Z,18.07
2018-03-26T19:32:26.261Z,16.37
2018-03-26T19:34:53.864Z,11.73
2018-03-26T19:37:22.273Z,14.50
2018-03-26T19:39:49.870Z,17.13
2018-03-26T19:42:17.522Z,12.03
2018-03-26T19:44:45.136Z,13.10
2018-03-26T19:47:13.493Z,9.90
2018-03-26T19:49:41.114Z,8.97
2018-03-26T19:52:08.708Z,9.63
2018-03-26T19:54:36.405Z,16.33
2018-03-26T19:57:04.776Z,10.93
2018-03-26T19:59:33.198Z,8.57
2018-03-26T20:02:00.802Z,8.90
2018-03-26T20:04:29.985Z,8.90
2018-03-26T20:06:57.619Z,9.93
2018-03-26T20:09:25.257Z,9.47
2018-03-26T20:11:53.258Z,9.53
2018-03-26T20:14:20.912Z,10.83
2018-03-26T20:16:48.668Z,10.73
2018-03-26T20:19:16.284Z,8.67
2018-03-26T20:21:43.915Z,7.60
2018-03-26T20:24:12.058Z,8.53
2018-03-26T20:26:39.749Z,6.60
2018-03-26T20:29:07.613Z,9.17
2018-03-26T20:31:35.298Z,13.43
2018-03-26T20:34:03.675Z,10.77
2018-03-26T20:36:31.276Z,9.00
2018-03-26T20:38:58.947Z,6.03
2018-03-26T20:41:26.586Z,8.87
2018-03-26T20:43:55.097Z,8.23
2018-03-26T20:46:22.790Z,8.60
2018-03-26T20:48:50.423Z,9.10
2018-03-26T20:51:18.204Z,7.33
2018-03-26T20:53:45.830Z,9.67
2018-03-26T20:56:13.634Z,8.57
2018-03-26T20:58:41.513Z,9.67
2018-03-26T21:01:09.372Z,11.70
2018-03-26T21:03:37.157Z,11.10
2018-03-26T21:06:05.858Z,16.60
2018-03-26T21:08:35.648Z,11.10
2018-03-26T21:11:03.402Z,10.27
2018-03-26T21:13:31.104Z,7.57
2018-03-26T21:15:59.651Z,13.90
2018-03-26T21:18:27.450Z,9.77
2018-03-26T21:20:56.006Z,7.60
2018-03-26T21:23:23.789Z,7.03
2018-03-26T21:25:52.358Z,7.33
2018-03-26T21:28:20.218Z,8.63
2018-03-26T21:30:47.917Z,8.87
2018-03-26T21:33:16.275Z,9.30
2018-03-26T21:35:43.906Z,6.83
2018-03-26T21:38:11.573Z,9.70
2018-03-26T21:40:39.967Z,7.47
2018-03-26T21:43:07.589Z,5.73
2018-03-26T21:45:35.338Z,9.20
2018-03-26T21:48:02.953Z,9.20
2018-03-26T21:50:30.545Z,11.00
2018-03-26T21:52:58.940Z,10.00
2018-03-26T21:55:26.528Z,8.20
2018-03-26T21:57:54.163Z,7.20
2018-03-26T22:00:21.759Z,5.03
2018-03-26T22:02:49.371Z,9.47
2018-03-26T22:05:17.712Z,8.67
2018-03-26T22:07:45.325Z,9.57
2018-03-26T22:10:12.912Z,10.23
2018-03-26T22:12:40.529Z,7.67
2018-03-26T22:15:08.880Z,4.90
2018-03-26T22:17:38.057Z,8.07
2018-03-26T22:20:05.676Z,7.57
2018-03-26T22:22:33.294Z,5.40
2018-03-26T22:25:00.900Z,6.70
2018-03-26T22:27:28.528Z,8.13
2018-03-26T22:29:57.662Z,15.30
2018-03-26T22:32:25.351Z,10.13
2018-03-26T22:34:52.979Z,12.20
2018-03-26T22:37:20.578Z,7.53
2018-03-26T22:39:48.232Z,6.07
2018-03-26T22:42:15.824Z,10.27
2018-03-26T22:44:43.466Z,9.80
2018-03-26T22:47:11.056Z,12.27
2018-03-26T22:49:39.415Z,12.67
2018-03-26T22:52:07.016Z,9.77
2018-03-26T22:54:35.410Z,8.70
2018-03-26T22:57:02.999Z,7.27
2018-03-26T22:59:30.587Z,6.50
2018-03-26T23:01:59.722Z,7.43
2018-03-26T23:04:27.309Z,5.60
2018-03-26T23:06:54.900Z,8.60
2018-03-26T23:09:23.289Z,6.27
2018-03-26T23:11:51.649Z,9.90
2018-03-26T23:14:19.285Z,13.20
2018-03-26T23:16:46.876Z,12.53
2018-03-26T23:19:14.490Z,9.87
2018-03-26T23:21:42.079Z,12.17
2018-03-26T23:24:09.697Z,12.13
2018-03-26T23:26:37.290Z,9.57
2018-03-26T23:29:04.928Z,5.07
2018-03-26T23:31:32.508Z,11.70
2018-03-26T23:34:00.088Z,9.10
2018-03-26T23:36:27.697Z,6.23
2018-03-26T23:38:56.048Z,8.43
2018-03-26T23:41:23.673Z,6.67
2018-03-26T23:43:51.261Z,11.47
2018-03-26T23:46:18.851Z,10.03
2018-03-26T23:48:47.241Z,11.80
2018-03-26T23:51:14.820Z,6.80
2018-03-26T23:53:42.448Z,9.40
2018-03-26T23:56:10.796Z,12.20
2018-03-26T23:58:39.888Z,8.47
